Time;durP1;ratioP1;P1;durP2;ratioP2;P2;SDS_P1;SDS_P2;PMS_P1;PMS_P2;Temp;Humidity;BMP_temperature;BMP_pressure;BME280_temperature;BME280_humidity;BME280_pressure;Samples;Min_cycle;Max_cycle;Signal;HPM_P1;HPM_P2
2021/10/13 00:02:17;;;;;;;6.27;4.50;;;6.60;99.90;;;;;;5095008;28;20364;-63
2021/10/13 00:04:45;;;;;;;6.23;4.30;;;6.60;99.90;;;;;;5094863;28;20230;-63
2021/10/13 00:07:13;;;;;;;4.63;4.17;;;6.60;99.90;;;;;;5094489;28;20195;-63
2021/10/13 00:09:41;;;;;;;7.00;4.63;;;6.50;99.90;;;;;;5094468;28;20233;-63
2021/10/13 00:12:09;;;;;;;4.87;3.87;;;6.40;99.90;;;;;;5094748;28;20212;-64
2021/10/13 00:14:37;;;;;;;4.73;4.00;;;6.30;99.90;;;;;;5094498;28;20199;-62
2021/10/13 00:17:06;;;;;;;6.67;4.70;;;6.20;99.90;;;;;;5093803;28;20761;-62
2021/10/13 00:19:34;;;;;;;5.77;4.47;;;6.20;99.90;;;;;;5094747;28;20235;-63
2021/10/13 00:22:02;;;;;;;5.40;4.60;;;6.10;99.90;;;;;;5093947;28;20294;-63
2021/10/13 00:24:30;;;;;;;5.00;4.17;;;6.00;99.90;;;;;;5094047;28;20202;-62
2021/10/13 00:26:58;;;;;;;5.43;4.20;;;5.90;99.90;;;;;;5094300;28;20206;-64
2021/10/13 00:29:27;;;;;;;6.40;4.33;;;5.90;99.90;;;;;;5093869;28;20805;-62
2021/10/13 00:31:55;;;;;;;6.33;4.77;;;5.90;99.90;;;;;;5094208;28;20200;-63
2021/10/13 00:34:24;;;;;;;6.30;5.20;;;5.80;99.90;;;;;;5093913;28;20298;-63
2021/10/13 00:36:52;;;;;;;6.20;4.63;;;5.80;99.90;;;;;;5094080;28;20222;-63
2021/10/13 00:39:20;;;;;;;5.83;5.17;;;5.80;99.90;;;;;;5093960;28;20291;-63
2021/10/13 00:41:47;;;;;;;6.13;5.43;;;5.80;99.90;;;;;;5094064;28;20284;-64
2021/10/13 00:44:15;;;;;;;5.80;4.73;;;5.80;99.90;;;;;;5093498;28;20685;-63
2021/10/13 00:46:43;;;;;;;7.07;5.30;;;5.70;99.90;;;;;;5093604;28;20199;-64
2021/10/13 00:49:11;;;;;;;5.90;5.03;;;5.70;99.90;;;;;;5093560;28;20666;-64
2021/10/13 00:51:40;;;;;;;8.07;6.67;;;5.60;99.90;;;;;;5093775;28;20368;-63
2021/10/13 00:54:10;;;;;;;6.83;6.13;;;5.70;99.90;;;;;;5093317;28;20698;-62
2021/10/13 00:56:38;;;;;;;8.50;7.00;;;5.70;99.90;;;;;;5093728;28;20223;-62
2021/10/13 00:59:06;;;;;;;8.47;6.77;;;5.80;99.90;;;;;;5093514;28;20608;-63
2021/10/13 01:01:39;;;;;;;8.30;6.63;;;5.80;99.90;;;;;;5093219;28;20203;-64
2021/10/13 01:04:22;;;;;;;7.90;5.80;;;5.80;99.90;;;;;;5093661;28;20183;-64
2021/10/13 01:06:59;;;;;;;9.23;6.93;;;5.90;99.90;;;;;;5093210;28;20279;-63
2021/10/13 01:09:33;;;;;;;6.63;5.77;;;6.00;99.90;;;;;;5093093;28;20187;-64
2021/10/13 01:12:13;;;;;;;5.90;5.23;;;6.00;99.90;;;;;;5093243;28;20710;-63
2021/10/13 01:14:46;;;;;;;5.80;5.17;;;6.00;99.90;;;;;;5093277;28;20278;-64
2021/10/13 01:17:23;;;;;;;6.10;5.37;;;5.90;99.90;;;;;;5093415;28;20686;-64
2021/10/13 01:20:01;;;;;;;6.97;5.90;;;5.90;99.90;;;;;;5093570;28;20191;-63
2021/10/13 01:23:08;;;;;;;7.07;5.43;;;5.90;99.90;;;;;;5092883;28;20188;-64
2021/10/13 01:25:48;;;;;;;8.43;5.43;;;5.90;99.90;;;;;;5075330;28;20200;-63
2021/10/13 01:28:20;;;;;;;5.70;5.00;;;5.80;99.90;;;;;;5092013;28;20690;-62
2021/10/13 01:30:55;;;;;;;5.47;4.97;;;5.80;99.90;;;;;;5092901;28;20617;-62
2021/10/13 01:33:26;;;;;;;6.83;5.03;;;5.80;99.90;;;;;;5093125;28;20191;-63
2021/10/13 01:35:56;;;;;;;7.80;5.60;;;5.90;99.90;;;;;;5093038;28;20271;-63
2021/10/13 01:38:27;;;;;;;8.00;4.77;;;5.80;99.90;;;;;;5092917;28;20208;-63
2021/10/13 01:40:59;;;;;;;8.70;5.13;;;5.80;99.90;;;;;;5093159;28;20275;-63
2021/10/13 01:43:32;;;;;;;6.30;4.80;;;5.70;99.90;;;;;;5092539;28;20710;-63
2021/10/13 01:46:02;;;;;;;5.53;4.50;;;5.70;99.90;;;;;;5092776;28;20192;-63
2021/10/13 01:48:32;;;;;;;6.60;5.20;;;5.60;99.90;;;;;;5093246;28;20221;-63
2021/10/13 01:51:01;;;;;;;7.07;4.87;;;5.60;99.90;;;;;;5092599;28;20203;-63
2021/10/13 01:53:29;;;;;;;7.53;4.83;;;5.50;99.90;;;;;;5092781;28;20206;-63
2021/10/13 01:56:00;;;;;;;6.20;5.30;;;5.50;99.90;;;;;;5092535;28;20786;-63
2021/10/13 01:58:30;;;;;;;6.07;4.90;;;5.50;99.90;;;;;;5092668;28;20207;-62
2021/10/13 02:01:00;;;;;;;4.93;4.40;;;5.40;99.90;;;;;;5092663;28;20278;-63
2021/10/13 02:03:31;;;;;;;5.30;4.53;;;5.40;99.90;;;;;;5092858;28;20241;-63
2021/10/13 02:06:01;;;;;;;8.23;5.20;;;5.40;99.90;;;;;;5092763;28;20184;-63
2021/10/13 02:08:30;;;;;;;6.93;4.77;;;5.40;99.90;;;;;;5092667;28;20190;-63
2021/10/13 02:11:03;;;;;;;5.47;4.90;;;5.40;99.90;;;;;;5092489;28;20277;-64
2021/10/13 02:13:36;;;;;;;6.80;5.07;;;5.40;99.90;;;;;;5092560;28;20286;-63
2021/10/13 02:16:06;;;;;;;8.90;5.73;;;5.40;99.90;;;;;;5092635;28;20192;-63
2021/10/13 02:18:35;;;;;;;6.27;5.40;;;5.60;99.90;;;;;;5092634;28;20208;-63
2021/10/13 02:21:06;;;;;;;8.30;5.30;;;5.70;99.90;;;;;;5092781;28;20210;-62
2021/10/13 02:23:37;;;;;;;7.27;5.03;;;5.80;99.90;;;;;;5092664;28;20218;-63
2021/10/13 02:26:12;;;;;;;7.27;5.27;;;5.80;99.90;;;;;;5092643;28;20253;-62
2021/10/13 02:28:47;;;;;;;7.97;5.33;;;5.90;99.90;;;;;;5092663;28;20273;-63
2021/10/13 02:31:14;;;;;;;8.50;6.00;;;5.80;99.90;;;;;;5092301;28;20198;-62
2021/10/13 02:33:42;;;;;;;8.77;7.37;;;5.80;99.90;;;;;;5092627;28;20796;-62
2021/10/13 02:36:10;;;;;;;15.73;12.40;;;5.70;99.90;;;;;;5092500;28;20198;-63
2021/10/13 02:38:39;;;;;;;15.67;13.17;;;5.60;99.90;;;;;;5093395;28;20223;-63
2021/10/13 02:41:06;;;;;;;12.03;10.37;;;5.60;99.90;;;;;;5096253;28;20310;-63
2021/10/13 02:43:36;;;;;;;12.53;7.37;;;5.60;99.90;;;;;;5096113;28;20298;-63
2021/10/13 02:46:15;;;;;;;6.47;5.77;;;5.50;99.90;;;;;;5096103;28;20226;-63
2021/10/13 02:48:46;;;;;;;9.97;7.27;;;5.40;99.90;;;;;;5096455;28;20233;-63
2021/10/13 02:51:21;;;;;;;10.97;7.27;;;5.50;99.90;;;;;;5096075;28;20268;-62
2021/10/13 02:53:57;;;;;;;8.00;5.60;;;5.40;99.90;;;;;;5095676;28;20281;-63
2021/10/13 02:56:30;;;;;;;9.53;6.77;;;5.40;99.90;;;;;;5096026;28;20215;-63
2021/10/13 02:59:03;;;;;;;7.77;6.90;;;5.30;99.90;;;;;;5095822;28;20202;-64
2021/10/13 03:01:40;;;;;;;7.43;6.63;;;5.20;99.90;;;;;;5095968;28;20193;-63
2021/10/13 03:04:11;;;;;;;8.13;5.90;;;5.20;99.90;;;;;;5095949;28;20188;-62
2021/10/13 03:06:44;;;;;;;10.33;6.43;;;5.30;99.90;;;;;;5095777;28;20213;-61
2021/10/13 03:09:13;;;;;;;7.70;5.67;;;5.20;99.90;;;;;;5095607;28;20197;-62
2021/10/13 03:11:43;;;;;;;9.17;5.83;;;5.20;99.90;;;;;;5095766;28;20199;-62
2021/10/13 03:14:12;;;;;;;7.80;5.50;;;5.20;99.90;;;;;;5095513;28;20301;-62
2021/10/13 03:16:43;;;;;;;9.90;6.40;;;5.20;99.90;;;;;;5095249;28;20245;-63
2021/10/13 03:19:11;;;;;;;9.73;6.83;;;5.20;99.90;;;;;;5095594;28;20202;-63
2021/10/13 03:21:40;;;;;;;8.63;6.33;;;5.20;99.90;;;;;;5095336;28;20753;-63
2021/10/13 03:24:08;;;;;;;10.60;7.17;;;5.10;99.90;;;;;;5095125;28;20676;-63
2021/10/13 03:26:36;;;;;;;8.73;7.70;;;5.10;99.90;;;;;;5095129;28;20210;-63
2021/10/13 03:29:04;;;;;;;9.10;7.23;;;5.10;99.90;;;;;;5095132;28;20202;-63
2021/10/13 03:31:32;;;;;;;7.90;6.50;;;5.10;99.90;;;;;;5095119;28;20730;-63
2021/10/13 03:34:01;;;;;;;7.37;5.90;;;5.10;99.90;;;;;;5095397;28;20314;-62
2021/10/13 03:36:38;;;;;;;8.73;5.60;;;5.10;99.90;;;;;;5095234;28;20234;-62
2021/10/13 03:39:06;;;;;;;7.97;5.70;;;5.10;99.90;;;;;;5095046;28;20246;-62
2021/10/13 03:41:34;;;;;;;8.00;5.80;;;5.10;99.90;;;;;;5095208;28;20298;-62
2021/10/13 03:44:01;;;;;;;9.30;6.40;;;5.10;99.90;;;;;;5094996;28;20204;-62
2021/10/13 03:46:29;;;;;;;7.77;6.07;;;5.10;99.90;;;;;;5095054;28;20225;-63
2021/10/13 03:48:57;;;;;;;9.97;6.83;;;5.10;99.90;;;;;;5095073;28;20200;-62
2021/10/13 03:51:28;;;;;;;9.40;6.60;;;5.10;99.90;;;;;;5094065;28;20287;-63
2021/10/13 03:53:56;;;;;;;9.70;6.70;;;5.20;99.90;;;;;;5094829;28;20202;-62
2021/10/13 03:56:24;;;;;;;9.87;6.63;;;5.10;99.90;;;;;;5094828;28;20203;-63
2021/10/13 03:58:52;;;;;;;10.70;6.60;;;5.10;99.90;;;;;;5094686;28;20218;-63
2021/10/13 04:01:20;;;;;;;8.93;6.33;;;5.10;99.90;;;;;;5094353;28;20207;-62
2021/10/13 04:03:48;;;;;;;9.20;6.67;;;5.20;99.90;;;;;;5094926;28;20205;-62
2021/10/13 04:06:16;;;;;;;8.27;6.43;;;5.20;99.90;;;;;;5094388;28;20233;-62
2021/10/13 04:08:45;;;;;;;13.13;7.27;;;5.10;99.90;;;;;;5094481;28;20204;-62
2021/10/13 04:11:13;;;;;;;10.40;6.97;;;5.20;99.90;;;;;;5094434;28;20249;-64
2021/10/13 04:13:41;;;;;;;10.90;7.17;;;5.10;99.90;;;;;;5094005;28;20294;-63
2021/10/13 04:16:08;;;;;;;12.57;7.60;;;5.10;99.90;;;;;;5094375;28;20623;-63
2021/10/13 04:18:36;;;;;;;12.97;7.30;;;5.10;99.90;;;;;;5094367;28;20280;-63
2021/10/13 04:21:04;;;;;;;10.17;7.53;;;5.10;99.90;;;;;;5094295;28;20301;-63
2021/10/13 04:23:32;;;;;;;12.20;7.67;;;5.10;99.90;;;;;;5093836;28;20661;-62
2021/10/13 04:26:01;;;;;;;10.53;7.77;;;5.10;99.90;;;;;;5094032;28;20650;-63
2021/10/13 04:28:29;;;;;;;12.67;8.43;;;5.10;99.90;;;;;;5094057;28;20202;-63
2021/10/13 04:30:57;;;;;;;14.20;9.10;;;5.10;99.90;;;;;;5093925;28;20731;-62
2021/10/13 04:33:25;;;;;;;12.70;8.30;;;5.10;99.90;;;;;;5094013;28;20273;-63
2021/10/13 04:35:53;;;;;;;13.93;9.20;;;5.10;99.90;;;;;;5094341;28;20360;-63
2021/10/13 04:38:21;;;;;;;10.93;8.67;;;5.20;99.90;;;;;;5093798;28;20202;-63
2021/10/13 04:40:49;;;;;;;14.53;8.70;;;5.10;99.90;;;;;;5094046;28;20291;-63
2021/10/13 04:43:18;;;;;;;16.40;9.37;;;5.20;99.90;;;;;;5093920;28;20298;-63
2021/10/13 04:45:45;;;;;;;14.43;9.27;;;5.20;99.90;;;;;;5093662;28;20645;-63
2021/10/13 04:48:13;;;;;;;14.40;9.47;;;5.30;99.90;;;;;;5094255;28;20295;-63
2021/10/13 04:50:41;;;;;;;13.83;9.00;;;5.20;99.90;;;;;;5094079;28;20201;-64
2021/10/13 04:53:09;;;;;;;15.53;8.93;;;5.20;99.90;;;;;;5093896;28;20237;-62
2021/10/13 04:55:37;;;;;;;11.77;8.50;;;5.20;99.90;;;;;;5093756;28;20298;-63
2021/10/13 04:58:05;;;;;;;14.97;9.80;;;5.20;99.90;;;;;;5093381;28;20219;-63
2021/10/13 05:00:34;;;;;;;15.40;9.27;;;5.10;99.90;;;;;;5093383;28;20685;-63
2021/10/13 05:03:02;;;;;;;19.67;10.17;;;5.10;99.90;;;;;;5093455;28;20199;-63
2021/10/13 05:05:31;;;;;;;13.60;9.53;;;5.00;99.90;;;;;;5093284;28;20736;-62
2021/10/13 05:07:59;;;;;;;16.00;10.87;;;5.00;99.90;;;;;;5093363;28;20288;-63
2021/10/13 05:10:26;;;;;;;16.17;10.20;;;5.00;99.90;;;;;;5093311;28;20325;-62
2021/10/13 05:12:54;;;;;;;15.80;10.13;;;5.10;99.90;;;;;;5093008;28;20209;-63
2021/10/13 05:15:22;;;;;;;20.63;11.80;;;5.00;99.90;;;;;;5093213;28;20690;-63
2021/10/13 05:17:51;;;;;;;17.33;10.70;;;5.10;99.90;;;;;;5093305;28;20205;-63
2021/10/13 05:20:19;;;;;;;16.57;9.87;;;5.10;99.90;;;;;;5089813;28;20227;-63
2021/10/13 05:22:47;;;;;;;20.10;11.40;;;5.10;99.90;;;;;;5093124;28;20289;-63
2021/10/13 05:25:15;;;;;;;18.23;11.27;;;5.10;99.90;;;;;;5092854;28;20297;-62
2021/10/13 05:27:43;;;;;;;20.47;11.57;;;5.10;99.90;;;;;;5092783;28;20546;-62
2021/10/13 05:30:11;;;;;;;19.87;11.87;;;5.10;99.90;;;;;;5092959;28;20235;-63
2021/10/13 05:32:39;;;;;;;17.50;11.63;;;5.10;99.90;;;;;;5093078;28;20293;-64
2021/10/13 05:35:09;;;;;;;18.93;11.30;;;5.10;99.90;;;;;;5093042;28;20225;-63
2021/10/13 05:37:36;;;;;;;20.90;11.90;;;5.20;99.90;;;;;;5092814;28;20621;-63
2021/10/13 05:40:05;;;;;;;18.37;11.87;;;5.20;99.90;;;;;;5092887;28;20217;-63
2021/10/13 05:42:33;;;;;;;20.90;13.13;;;5.20;99.90;;;;;;5092447;28;20289;-63
2021/10/13 05:45:01;;;;;;;22.73;13.63;;;5.20;99.90;;;;;;5092932;28;20232;-64
2021/10/13 05:47:29;;;;;;;23.73;14.50;;;5.20;99.90;;;;;;5092934;28;20253;-63
2021/10/13 05:49:57;;;;;;;24.47;13.93;;;5.20;99.90;;;;;;5092597;28;20202;-63
2021/10/13 05:52:26;;;;;;;22.43;14.40;;;5.30;99.90;;;;;;5092898;28;20207;-63
2021/10/13 05:54:54;;;;;;;22.10;14.10;;;5.30;99.90;;;;;;5092545;28;20292;-63
2021/10/13 05:57:22;;;;;;;22.57;14.37;;;5.40;99.90;;;;;;5092820;28;20214;-64
2021/10/13 05:59:56;;;;;;;23.00;14.73;;;5.40;99.90;;;;;;5092843;28;20304;-63
2021/10/13 06:02:24;;;;;;;22.80;13.90;;;5.40;99.90;;;;;;5093008;28;20197;-64
2021/10/13 06:04:53;;;;;;;22.60;14.30;;;5.50;99.90;;;;;;5092643;28;20215;-63
2021/10/13 06:07:20;;;;;;;21.17;13.90;;;5.60;99.90;;;;;;5092965;28;20209;-63
2021/10/13 06:09:49;;;;;;;24.20;14.17;;;5.60;99.90;;;;;;5092557;28;20233;-64
2021/10/13 06:12:17;;;;;;;25.00;13.83;;;5.70;99.90;;;;;;5092405;28;20537;-63
2021/10/13 06:14:45;;;;;;;21.47;13.73;;;5.70;99.90;;;;;;5095182;28;20215;-63
2021/10/13 06:17:13;;;;;;;22.63;14.90;;;5.70;99.90;;;;;;5096797;28;20202;-64
2021/10/13 06:19:40;;;;;;;21.87;14.17;;;5.80;99.90;;;;;;5096679;28;20226;-64
2021/10/13 06:22:08;;;;;;;23.63;15.20;;;5.80;99.90;;;;;;5096562;28;20220;-64
2021/10/13 06:24:36;;;;;;;27.43;15.83;;;5.90;99.90;;;;;;5096564;28;20225;-65
2021/10/13 06:27:05;;;;;;;23.70;15.37;;;5.90;99.90;;;;;;5096126;28;20642;-63
2021/10/13 06:29:33;;;;;;;21.77;14.33;;;5.90;99.90;;;;;;5096443;28;20562;-63
2021/10/13 06:32:01;;;;;;;24.50;14.87;;;6.00;99.90;;;;;;5096027;28;20208;-63
2021/10/13 06:34:28;;;;;;;22.43;14.67;;;6.10;99.90;;;;;;5096056;28;20208;-64
2021/10/13 06:36:56;;;;;;;21.90;14.30;;;6.10;99.90;;;;;;5094806;28;20270;-66
2021/10/13 06:39:24;;;;;;;20.40;14.53;;;6.10;99.90;;;;;;5095349;28;20286;-62
2021/10/13 06:41:52;;;;;;;21.03;13.87;;;6.20;99.90;;;;;;5095572;28;20298;-62
2021/10/13 06:44:21;;;;;;;20.20;14.27;;;6.20;99.90;;;;;;5095745;28;20237;-64
2021/10/13 06:46:50;;;;;;;22.57;15.10;;;6.30;99.90;;;;;;5095817;28;20742;-63
2021/10/13 06:49:18;;;;;;;20.03;14.13;;;6.30;99.90;;;;;;5095713;28;20210;-65
2021/10/13 06:51:46;;;;;;;24.93;16.03;;;6.40;99.90;;;;;;5095710;28;20239;-63
2021/10/13 06:54:13;;;;;;;21.07;15.23;;;6.50;99.90;;;;;;5095419;28;20213;-64
2021/10/13 06:56:41;;;;;;;20.30;13.70;;;6.50;99.90;;;;;;5095985;28;20574;-64
2021/10/13 06:59:09;;;;;;;17.93;13.07;;;6.60;99.90;;;;;;5096101;28;20299;-64
2021/10/13 07:01:38;;;;;;;16.57;12.37;;;6.70;99.90;;;;;;5095716;28;20326;-64
2021/10/13 07:04:06;;;;;;;17.40;12.53;;;6.70;99.90;;;;;;5095896;28;20559;-63
2021/10/13 07:06:34;;;;;;;17.73;12.57;;;6.80;99.90;;;;;;5096068;28;20210;-64
2021/10/13 07:09:02;;;;;;;17.70;12.43;;;6.90;99.90;;;;;;5095404;28;20204;-64
2021/10/13 07:11:30;;;;;;;15.53;11.70;;;7.00;99.90;;;;;;5095404;28;20307;-64
2021/10/13 07:13:58;;;;;;;17.70;12.13;;;7.00;99.90;;;;;;5095608;28;20277;-64
2021/10/13 07:16:25;;;;;;;15.50;12.33;;;7.10;99.90;;;;;;5095602;28;20202;-64
2021/10/13 07:18:55;;;;;;;15.10;12.07;;;7.10;99.90;;;;;;5095273;28;20235;-64
2021/10/13 07:21:22;;;;;;;15.50;11.47;;;7.30;99.90;;;;;;5095118;28;20212;-64
2021/10/13 07:23:50;;;;;;;16.03;11.93;;;7.40;99.90;;;;;;5095443;28;20200;-65
2021/10/13 07:26:18;;;;;;;16.43;11.80;;;7.50;99.90;;;;;;5094003;28;20687;-64
2021/10/13 07:28:46;;;;;;;16.53;11.63;;;7.50;99.90;;;;;;5095261;28;20196;-64
2021/10/13 07:31:14;;;;;;;16.10;11.50;;;7.50;99.90;;;;;;5095317;28;20196;-64
2021/10/13 07:33:42;;;;;;;14.10;10.67;;;7.50;99.90;;;;;;5094658;28;20203;-63
2021/10/13 07:36:12;;;;;;;16.37;11.53;;;7.50;99.90;;;;;;5094499;28;20411;-65
2021/10/13 07:38:41;;;;;;;15.37;11.23;;;7.50;99.90;;;;;;5095268;28;20204;-64
2021/10/13 07:41:14;;;;;;;14.70;11.17;;;7.50;99.90;;;;;;5094778;28;20218;-64
2021/10/13 07:43:42;;;;;;;15.27;11.53;;;7.60;99.90;;;;;;5094964;28;20200;-64
2021/10/13 07:46:12;;;;;;;14.63;10.50;;;7.60;99.90;;;;;;5095008;28;20200;-63
2021/10/13 07:48:40;;;;;;;14.60;10.80;;;7.60;99.90;;;;;;5094663;28;20620;-64
2021/10/13 07:51:08;;;;;;;14.13;10.07;;;7.70;99.90;;;;;;5094559;28;20204;-63
2021/10/13 07:53:37;;;;;;;13.77;10.87;;;7.70;99.90;;;;;;5094437;28;20199;-64
2021/10/13 07:56:06;;;;;;;13.90;10.63;;;7.80;99.90;;;;;;5094081;28;20734;-63
2021/10/13 07:58:34;;;;;;;13.57;10.63;;;8.00;99.90;;;;;;5094578;28;20282;-63
2021/10/13 08:01:02;;;;;;;15.20;11.83;;;8.00;99.90;;;;;;5094215;28;20310;-63
2021/10/13 08:03:30;;;;;;;13.40;10.20;;;7.90;99.90;;;;;;5094615;28;20200;-63
2021/10/13 08:05:58;;;;;;;13.50;9.60;;;7.90;99.90;;;;;;5094651;28;20200;-63
2021/10/13 08:08:25;;;;;;;12.50;9.57;;;7.90;99.90;;;;;;5094020;28;20207;-64
2021/10/13 08:10:55;;;;;;;12.73;9.73;;;7.80;99.90;;;;;;5094407;28;20238;-63
2021/10/13 08:13:23;;;;;;;14.33;10.63;;;7.80;99.90;;;;;;5093786;28;20621;-64
2021/10/13 08:15:50;;;;;;;13.90;9.87;;;7.80;99.90;;;;;;5093984;28;20234;-64
2021/10/13 08:18:18;;;;;;;12.50;9.50;;;7.80;99.90;;;;;;5093615;28;20208;-64
2021/10/13 08:20:46;;;;;;;12.63;9.37;;;8.00;99.90;;;;;;5092918;28;20220;-63
2021/10/13 08:23:14;;;;;;;13.33;9.53;;;8.00;99.90;;;;;;5092310;28;20207;-64
2021/10/13 08:25:42;;;;;;;11.43;9.20;;;8.10;99.90;;;;;;5092279;28;20214;-63
2021/10/13 08:28:12;;;;;;;12.43;9.23;;;8.20;99.90;;;;;;5092736;28;20323;-62
2021/10/13 08:30:40;;;;;;;13.87;10.10;;;8.30;99.90;;;;;;5092285;28;20667;-63
2021/10/13 08:33:08;;;;;;;13.30;9.57;;;8.50;99.90;;;;;;5093071;28;20443;-63
2021/10/13 08:35:36;;;;;;;9.77;8.70;;;8.80;99.90;;;;;;5093056;28;20200;-64
2021/10/13 08:38:04;;;;;;;10.10;8.70;;;9.00;99.90;;;;;;5092557;28;20223;-63
2021/10/13 08:40:32;;;;;;;11.40;9.43;;;9.10;99.90;;;;;;5092606;28;20652;-64
2021/10/13 08:43:02;;;;;;;10.30;8.70;;;9.00;99.90;;;;;;5091965;28;20203;-64
2021/10/13 08:45:33;;;;;;;10.20;8.87;;;8.80;99.90;;;;;;5092694;28;20200;-62
2021/10/13 08:48:02;;;;;;;10.20;8.63;;;8.70;99.90;;;;;;5092876;28;20287;-63
2021/10/13 08:50:31;;;;;;;12.30;10.10;;;8.70;99.90;;;;;;5092615;28;20202;-63
2021/10/13 08:53:05;;;;;;;11.20;9.33;;;8.70;99.90;;;;;;5092683;28;20229;-63
2021/10/13 08:55:33;;;;;;;11.23;9.40;;;8.60;99.90;;;;;;5092081;28;20560;-62
2021/10/13 08:58:16;;;;;;;11.40;9.77;;;8.70;99.90;;;;;;5092647;28;20282;-63
2021/10/13 09:00:47;;;;;;;13.80;9.27;;;9.00;99.90;;;;;;5090667;28;20639;-64
2021/10/13 09:03:31;;;;;;;12.37;9.17;;;9.10;99.90;;;;;;5091567;28;20227;-63
2021/10/13 09:06:12;;;;;;;12.70;9.00;;;9.10;99.90;;;;;;5092054;28;20185;-63
2021/10/13 09:09:01;;;;;;;11.57;9.67;;;9.10;99.90;;;;;;5087723;28;20215;-61
2021/10/13 09:11:38;;;;;;;12.67;10.20;;;9.10;99.90;;;;;;5090642;28;20275;-63
2021/10/13 09:14:11;;;;;;;13.70;10.73;;;9.40;99.90;;;;;;5091955;28;20686;-63
2021/10/13 09:16:53;;;;;;;11.80;10.47;;;9.70;99.90;;;;;;5090784;28;20199;-63
2021/10/13 09:19:22;;;;;;;12.33;10.10;;;10.10;99.90;;;;;;5091325;28;20184;-63
2021/10/13 09:21:53;;;;;;;11.93;10.40;;;10.10;99.90;;;;;;5090262;28;20709;-63
2021/10/13 09:24:21;;;;;;;13.57;10.77;;;10.20;99.90;;;;;;5087917;28;20188;-64
2021/10/13 09:26:50;;;;;;;9.70;8.70;;;10.20;99.90;;;;;;5090997;28;20207;-65
2021/10/13 09:29:18;;;;;;;9.60;8.60;;;10.10;99.90;;;;;;5091784;28;20210;-64
2021/10/13 09:31:56;;;;;;;10.03;8.37;;;10.00;99.90;;;;;;5092040;28;20199;-63
2021/10/13 09:34:25;;;;;;;10.53;8.83;;;9.90;99.90;;;;;;5091978;28;20266;-63
2021/10/13 09:36:58;;;;;;;9.83;8.77;;;10.10;99.90;;;;;;5090752;28;20196;-63
2021/10/13 09:39:28;;;;;;;10.50;9.23;;;10.10;99.90;;;;;;5090661;28;20665;-62
2021/10/13 09:41:58;;;;;;;10.50;8.67;;;10.10;99.90;;;;;;5091748;28;20220;-64
2021/10/13 09:44:26;;;;;;;9.70;7.87;;;10.20;99.90;;;;;;5091964;28;20228;-63
2021/10/13 09:46:59;;;;;;;9.13;7.40;;;10.30;99.90;;;;;;5091487;28;20294;-63
2021/10/13 09:49:33;;;;;;;8.00;7.20;;;10.20;99.90;;;;;;5091126;28;20266;-64
2021/10/13 09:52:07;;;;;;;8.03;7.23;;;10.20;99.90;;;;;;5091841;28;20211;-65
2021/10/13 09:54:35;;;;;;;7.03;6.33;;;10.20;99.90;;;;;;5091577;28;20187;-64
2021/10/13 09:57:21;;;;;;;6.27;5.67;;;10.40;99.90;;;;;;5091878;28;20324;-63
2021/10/13 10:00:06;;;;;;;7.20;6.43;;;10.30;99.90;;;;;;5091862;28;20266;-63
2021/10/13 10:02:37;;;;;;;7.33;6.37;;;10.20;99.90;;;;;;5091505;28;20204;-63
2021/10/13 10:05:09;;;;;;;8.10;6.40;;;10.20;99.90;;;;;;5091952;28;20230;-63
2021/10/13 10:07:42;;;;;;;7.80;6.40;;;10.30;99.90;;;;;;5092061;28;20216;-64
2021/10/13 10:10:13;;;;;;;8.10;6.67;;;10.50;99.90;;;;;;5091529;28;20267;-63
2021/10/13 10:12:57;;;;;;;6.73;5.30;;;10.50;99.90;;;;;;5091321;28;20542;-66
2021/10/13 10:15:32;;;;;;;5.23;4.73;;;10.50;99.90;;;;;;5091319;28;20192;-63
2021/10/13 10:18:03;;;;;;;4.73;4.10;;;10.40;99.90;;;;;;5090555;28;20219;-64
2021/10/13 10:20:40;;;;;;;4.53;4.13;;;10.20;99.90;;;;;;5091613;28;20195;-63
2021/10/13 10:23:31;;;;;;;5.70;4.03;;;10.30;99.90;;;;;;5091645;28;20211;-62
2021/10/13 10:26:02;;;;;;;4.60;3.77;;;10.40;99.90;;;;;;5091671;28;20192;-63
2021/10/13 10:28:55;;;;;;;4.57;3.50;;;10.70;99.90;;;;;;5091311;28;20180;-64
2021/10/13 10:31:35;;;;;;;4.50;3.50;;;11.10;99.90;;;;;;5092115;28;20208;-63
2021/10/13 10:34:13;;;;;;;3.10;2.90;;;11.30;99.90;;;;;;5090489;28;20192;-63
2021/10/13 10:37:10;;;;;;;3.47;3.17;;;11.50;99.90;;;;;;5091293;28;20634;-63
2021/10/13 10:39:59;;;;;;;3.70;3.10;;;11.70;99.90;;;;;;5091303;28;20739;-63
2021/10/13 10:43:05;;;;;;;3.50;3.20;;;11.80;99.90;;;;;;5091407;28;20223;-62
2021/10/13 10:45:36;;;;;;;3.20;2.90;;;11.80;99.90;;;;;;5091037;28;20275;-64
2021/10/13 10:48:11;;;;;;;4.30;3.20;;;11.70;99.90;;;;;;5091593;28;20269;-64
2021/10/13 10:50:47;;;;;;;4.10;3.07;;;11.60;99.90;;;;;;5091336;28;20211;-63
2021/10/13 10:53:30;;;;;;;3.33;3.03;;;11.40;99.90;;;;;;5091328;28;20279;-63
2021/10/13 10:56:17;;;;;;;3.00;2.70;;;11.20;99.90;;;;;;5090823;28;20188;-63
2021/10/13 10:59:01;;;;;;;3.50;2.80;;;11.00;99.90;;;;;;5091160;28;20208;-63
2021/10/13 11:01:29;;;;;;;2.80;2.60;;;10.90;99.90;;;;;;5094837;28;20636;-64
2021/10/13 11:03:57;;;;;;;4.47;2.70;;;10.90;99.90;;;;;;5094796;28;20259;-63
2021/10/13 11:06:28;;;;;;;3.20;2.90;;;11.20;99.90;;;;;;5095086;28;20645;-64
2021/10/13 11:09:02;;;;;;;2.60;2.40;;;11.30;99.90;;;;;;5094832;28;20188;-63
2021/10/13 11:11:33;;;;;;;3.70;2.70;;;11.60;99.90;;;;;;5094459;28;20231;-64
2021/10/13 11:14:05;;;;;;;2.93;2.57;;;11.60;99.90;;;;;;5094874;28;20214;-63
2021/10/13 11:16:37;;;;;;;4.27;2.70;;;11.70;99.90;;;;;;5094104;28;20184;-64
2021/10/13 11:19:18;;;;;;;3.43;2.77;;;11.80;99.90;;;;;;5093904;28;20184;-64
2021/10/13 11:21:55;;;;;;;3.17;2.43;;;11.80;99.90;;;;;;5093944;28;20670;-63
2021/10/13 11:24:23;;;;;;;3.17;2.73;;;11.90;99.90;;;;;;5093911;28;20559;-63
2021/10/13 11:26:51;;;;;;;3.13;2.53;;;12.10;99.90;;;;;;5094435;28;20204;-62
2021/10/13 11:29:21;;;;;;;3.03;2.50;;;12.20;99.90;;;;;;5094372;28;20200;-63
2021/10/13 11:31:49;;;;;;;2.43;2.00;;;12.30;99.90;;;;;;5094226;28;20189;-63
2021/10/13 11:34:19;;;;;;;2.53;2.00;;;12.50;99.90;;;;;;5093235;28;20199;-64
2021/10/13 11:36:51;;;;;;;3.03;1.97;;;12.60;99.90;;;;;;5094021;28;20204;-64
2021/10/13 11:39:21;;;;;;;3.50;2.00;;;12.90;99.90;;;;;;5094197;28;20191;-65
2021/10/13 11:41:48;;;;;;;2.33;1.57;;;13.10;99.90;;;;;;5093753;28;20222;-63
2021/10/13 11:44:21;;;;;;;1.92;1.42;;;13.30;99.90;;;;;;5094335;28;20220;-63
2021/10/13 11:47:03;;;;;;;2.95;1.50;;;13.40;99.90;;;;;;5093972;28;20286;-63
2021/10/13 11:49:31;;;;;;;2.30;1.50;;;13.20;99.90;;;;;;5094051;28;20199;-63
2021/10/13 11:52:09;;;;;;;2.90;1.60;;;13.10;99.90;;;;;;5092848;28;20204;-64
2021/10/13 11:54:37;;;;;;;4.90;3.97;;;12.80;99.90;;;;;;5092689;28;20548;-65
2021/10/13 11:57:05;;;;;;;3.07;2.10;;;12.60;99.90;;;;;;5093479;28;20211;-64
2021/10/13 11:59:34;;;;;;;1.70;1.50;;;12.30;99.90;;;;;;5093757;28;20208;-63
2021/10/13 12:02:16;;;;;;;1.60;1.30;;;12.00;99.90;;;;;;5093719;28;20656;-63
2021/10/13 12:04:52;;;;;;;2.30;1.40;;;11.80;99.90;;;;;;5093596;28;20184;-64
2021/10/13 12:07:23;;;;;;;3.00;1.70;;;11.90;99.90;;;;;;5093715;28;20180;-63
2021/10/13 12:10:00;;;;;;;2.30;2.10;;;12.10;99.90;;;;;;5093158;28;20252;-63
2021/10/13 12:12:29;;;;;;;2.25;2.05;;;12.50;99.90;;;;;;5091502;28;20200;-63
2021/10/13 12:14:57;;;;;;;4.30;2.20;;;12.50;99.90;;;;;;5093139;28;20687;-64
2021/10/13 12:17:31;;;;;;;2.63;1.73;;;12.40;99.90;;;;;;5093624;28;20207;-64
2021/10/13 12:20:01;;;;;;;1.70;1.50;;;12.20;99.90;;;;;;5093446;28;20188;-64
2021/10/13 12:22:46;;;;;;;2.20;1.70;;;12.00;99.90;;;;;;5093179;28;20196;-63
2021/10/13 12:25:29;;;;;;;2.40;1.77;;;11.90;99.90;;;;;;5093186;28;20185;-63
2021/10/13 12:27:58;;;;;;;2.50;1.30;;;11.90;99.90;;;;;;5093313;28;20239;-64
2021/10/13 12:30:34;;;;;;;1.53;1.30;;;11.90;99.90;;;;;;5092725;28;20728;-64
2021/10/13 12:33:07;;;;;;;1.70;1.33;;;11.90;99.90;;;;;;5093308;28;20553;-64
2021/10/13 12:35:36;;;;;;;2.83;1.43;;;11.80;99.90;;;;;;5093183;28;20238;-64
2021/10/13 12:38:11;;;;;;;1.60;1.30;;;11.70;99.90;;;;;;5092747;28;20229;-62
2021/10/13 12:40:40;;;;;;;1.50;1.40;;;11.70;99.90;;;;;;5092980;28;20187;-64
2021/10/13 12:43:19;;;;;;;1.90;1.42;;;11.60;99.90;;;;;;5092417;28;20223;-63
2021/10/13 12:45:46;;;;;;;2.00;1.17;;;11.50;99.90;;;;;;5091740;28;20200;-64
2021/10/13 12:48:16;;;;;;;2.67;1.40;;;11.60;99.90;;;;;;5092439;28;20212;-63
2021/10/13 12:51:07;;;;;;;3.20;1.70;;;11.60;99.90;;;;;;5092725;28;20208;-63
2021/10/13 12:53:37;;;;;;;1.70;1.17;;;11.70;99.90;;;;;;5092590;28;20307;-64
2021/10/13 12:56:06;;;;;;;2.00;1.37;;;11.90;99.90;;;;;;5091930;28;20195;-65
2021/10/13 12:58:34;;;;;;;1.80;1.30;;;12.00;99.90;;;;;;5091937;28;20211;-64
2021/10/13 13:01:03;;;;;;;2.50;1.43;;;12.20;99.90;;;;;;5092259;28;20196;-63
2021/10/13 13:03:31;;;;;;;3.37;1.60;;;12.40;99.90;;;;;;5092364;28;20571;-63
2021/10/13 13:05:59;;;;;;;2.13;1.30;;;12.50;99.90;;;;;;5092135;28;20202;-64
2021/10/13 13:08:27;;;;;;;2.00;1.20;;;12.60;99.90;;;;;;5092341;28;20292;-62